sensor_id;sensor_type;location;lat;lon;timestamp;pressure;altitude;pressure_sealevel;temperature;humidity
45113;BME280;30873;53.908;27.576;2023-01-01T00:05:07;1011.9;;;9.4;84.1
45113;BME280;30873;53.908;27.576;2023-01-01T00:14:55;1011.9;;;9.4;84.1
45113;BME280;30873;53.908;27.576;2023-01-01T00:19:35;1012;;;9.5;83.7
45113;BME280;30873;53.908;27.576;2023-01-01T00:25:10;1011.9;;;9.5;83.9
45113;BME280;30873;53.908;27.576;2023-01-01T00:30:08;1011.8;;;9.5;83.8
45113;BME280;30873;53.908;27.576;2023-01-01T00:34:35;1011.7;;;9.6;83.8
45113;BME280;30873;53.908;27.576;2023-01-01T00:39:55;1011.6;;;9.6;83.5
45113;BME280;30873;53.908;27.576;2023-01-01T00:44:47;1011.6;;;9.7;83.5
45113;BME280;30873;53.908;27.576;2023-01-01T00:49:47;1011.5;;;9.7;83.4
45113;BME280;30873;53.908;27.576;2023-01-01T00:55:09;1011.5;;;9.8;83
45113;BME280;30873;53.908;27.576;2023-01-01T00:59:31;1011.4;;;9.8;83.2
45113;BME280;30873;53.908;27.576;2023-01-01T01:04:43;1011.4;;;9.7;83.2
45113;BME280;30873;53.908;27.576;2023-01-01T01:09:45;1011.2;;;9.8;83.6
45113;BME280;30873;53.908;27.576;2023-01-01T01:15:08;1011.1;;;9.8;83.5
45113;BME280;30873;53.908;27.576;2023-01-01T01:20:08;1011;;;9.8;83.2
45113;BME280;30873;53.908;27.576;2023-01-01T01:24:37;1011;;;9.7;83
45113;BME280;30873;53.908;27.576;2023-01-01T01:54:45;1011;;;9.7;83
45113;BME280;30873;53.908;27.576;2023-01-01T01:59:36;1011;;;9.5;84
45113;BME280;30873;53.908;27.576;2023-01-01T02:05:09;1011.1;;;9.5;84.2
45113;BME280;30873;53.908;27.576;2023-01-01T02:10:05;1011.1;;;9.6;84
45113;BME280;30873;53.908;27.576;2023-01-01T02:14:29;1011.1;;;9.6;84
45113;BME280;30873;53.908;27.576;2023-01-01T02:20:17;1010.9;;;9.6;83.8
45113;BME280;30873;53.908;27.576;2023-01-01T02:25:03;1010.8;;;9.6;84
45113;BME280;30873;53.908;27.576;2023-01-01T02:30:11;1010.8;;;9.8;84
45113;BME280;30873;53.908;27.576;2023-01-01T02:35:13;1010.8;;;9.8;83.9
45113;BME280;30873;53.908;27.576;2023-01-01T02:39:50;1010.8;;;9.8;83.9
45113;BME280;30873;53.908;27.576;2023-01-01T02:44:49;1010.9;;;9.9;84
45113;BME280;30873;53.908;27.576;2023-01-01T02:50:02;1010.9;;;9.8;84.5
45113;BME280;30873;53.908;27.576;2023-01-01T02:55:12;1010.9;;;9.8;84.4
45113;BME280;30873;53.908;27.576;2023-01-01T03:00:12;1010.8;;;9.8;84.2
45113;BME280;30873;53.908;27.576;2023-01-01T03:04:52;1010.8;;;9.8;84.2
45113;BME280;30873;53.908;27.576;2023-01-01T03:10:02;1010.9;;;9.8;84.5
45113;BME280;30873;53.908;27.576;2023-01-01T03:15:12;1010.8;;;9.8;84.6
45113;BME280;30873;53.908;27.576;2023-01-01T03:20:14;1010.7;;;9.9;84.9
45113;BME280;30873;53.908;27.576;2023-01-01T03:25:15;1010.7;;;9.9;84.5
45113;BME280;30873;53.908;27.576;2023-01-01T03:29:50;1010.7;;;9.9;84.5
45113;BME280;30873;53.908;27.576;2023-01-01T03:34:31;1010.6;;;9.9;84.2
45113;BME280;30873;53.908;27.576;2023-01-01T03:40:09;1010.8;;;9.9;84.1
45113;BME280;30873;53.908;27.576;2023-01-01T03:45:11;1010.8;;;9.9;84.2
45113;BME280;30873;53.908;27.576;2023-01-01T03:50:11;1010.8;;;10;84.1
45113;BME280;30873;53.908;27.576;2023-01-01T03:54:32;1010.8;;;10;84.1
45113;BME280;30873;53.908;27.576;2023-01-01T04:00:01;1010.7;;;9.9;84.4
45113;BME280;30873;53.908;27.576;2023-01-01T04:05:00;1010.5;;;9.8;85
45113;BME280;30873;53.908;27.576;2023-01-01T04:10:11;1010.5;;;9.9;85.2
45113;BME280;30873;53.908;27.576;2023-01-01T04:14:41;1010.5;;;9.9;85.2
45113;BME280;30873;53.908;27.576;2023-01-01T04:19:39;1010.5;;;10;85
45113;BME280;30873;53.908;27.576;2023-01-01T04:24:39;1010.4;;;10;85
45113;BME280;30873;53.908;27.576;2023-01-01T04:29:39;1010.4;;;10.1;84.9
45113;BME280;30873;53.908;27.576;2023-01-01T04:35:14;1010.3;;;10;85.1
45113;BME280;30873;53.908;27.576;2023-01-01T04:39:51;1010.3;;;10;85.1
45113;BME280;30873;53.908;27.576;2023-01-01T04:44:29;1010.3;;;10;85
45113;BME280;30873;53.908;27.576;2023-01-01T04:50:04;1010.2;;;10;85.1
45113;BME280;30873;53.908;27.576;2023-01-01T04:55:04;1010.2;;;9.9;85.4
45113;BME280;30873;53.908;27.576;2023-01-01T05:00:12;1010.3;;;10;85.3
45113;BME280;30873;53.908;27.576;2023-01-01T05:04:29;1010.3;;;10;85.3
45113;BME280;30873;53.908;27.576;2023-01-01T05:09:49;1010.3;;;10;85.4
45113;BME280;30873;53.908;27.576;2023-01-01T05:14:47;1010.3;;;10;85.6
45113;BME280;30873;53.908;27.576;2023-01-01T05:19:49;1010.3;;;10;85.7
45113;BME280;30873;53.908;27.576;2023-01-01T05:25:13;1010.2;;;10.1;85.5
45113;BME280;30873;53.908;27.576;2023-01-01T05:29:29;1010.2;;;10.1;85.5
45113;BME280;30873;53.908;27.576;2023-01-01T05:34:51;1010.2;;;10.2;85.3
45113;BME280;30873;53.908;27.576;2023-01-01T05:39:57;1010.1;;;10.3;85.1
45113;BME280;30873;53.908;27.576;2023-01-01T05:44:59;1010;;;10.4;84.7
45113;BME280;30873;53.908;27.576;2023-01-01T05:50:09;1010.1;;;10.5;84.6
45113;BME280;30873;53.908;27.576;2023-01-01T05:54:37;1010;;;10.5;84.4
45113;BME280;30873;53.908;27.576;2023-01-01T05:59:49;1010;;;10.6;84.1
45113;BME280;30873;53.908;27.576;2023-01-01T06:04:47;1010;;;10.5;83.8
45113;BME280;30873;53.908;27.576;2023-01-01T06:09:29;1010;;;10.4;83.7
45113;BME280;30873;53.908;27.576;2023-01-01T06:15:11;1010.1;;;10.3;84.2
45113;BME280;30873;53.908;27.576;2023-01-01T06:19:51;1010.1;;;10.3;84.2
45113;BME280;30873;53.908;27.576;2023-01-01T06:24:29;1010;;;10.2;84.5
45113;BME280;30873;53.908;27.576;2023-01-01T06:30:02;1010.1;;;10.2;84.5
45113;BME280;30873;53.908;27.576;2023-01-01T06:35:04;1010.2;;;10.2;84.8
45113;BME280;30873;53.908;27.576;2023-01-01T06:39:57;1010.2;;;10.2;84.7
45113;BME280;30873;53.908;27.576;2023-01-01T06:44:30;1010.2;;;10.2;84.7
45113;BME280;30873;53.908;27.576;2023-01-01T06:49:51;1010.1;;;10.1;85
45113;BME280;30873;53.908;27.576;2023-01-01T06:54:37;1010.1;;;10.1;85
45113;BME280;30873;53.908;27.576;2023-01-01T06:59:40;1010.2;;;10.1;85.1
45113;BME280;30873;53.908;27.576;2023-01-01T07:05:08;1010.3;;;10;85
45113;BME280;30873;53.908;27.576;2023-01-01T07:09:47;1010.4;;;10;84.9
45113;BME280;30873;53.908;27.576;2023-01-01T07:14:29;1010.4;;;10;85.2
45113;BME280;30873;53.908;27.576;2023-01-01T07:19:59;1010.5;;;10;85.1
45113;BME280;30873;53.908;27.576;2023-01-01T07:24:57;1010.6;;;10.1;85
45113;BME280;30873;53.908;27.576;2023-01-01T07:30:02;1010.5;;;10.1;84.6
45113;BME280;30873;53.908;27.576;2023-01-01T07:34:50;1010.5;;;10.1;84.4
45113;BME280;30873;53.908;27.576;2023-01-01T07:39:49;1010.6;;;10.2;84.3
45113;BME280;30873;53.908;27.576;2023-01-01T07:45:02;1010.7;;;10.3;83.7
45113;BME280;30873;53.908;27.576;2023-01-01T07:49:30;1010.8;;;10.4;83.3
45113;BME280;30873;53.908;27.576;2023-01-01T07:55:06;1011;;;10.5;82.9
45113;BME280;30873;53.908;27.576;2023-01-01T07:59:48;1011;;;10.6;82.5
45113;BME280;30873;53.908;27.576;2023-01-01T08:04:38;1010.9;;;10.8;81.8
45113;BME280;30873;53.908;27.576;2023-01-01T08:09:58;1010.7;;;10.9;80.8
45113;BME280;30873;53.908;27.576;2023-01-01T08:15:00;1010.6;;;10.9;80.8
45113;BME280;30873;53.908;27.576;2023-01-01T08:20:10;1010.7;;;10.9;80.7
45113;BME280;30873;53.908;27.576;2023-01-01T08:24:30;1010.7;;;11;80.6
45113;BME280;30873;53.908;27.576;2023-01-01T08:29:50;1010.7;;;11.3;79.7
45113;BME280;30873;53.908;27.576;2023-01-01T08:34:38;1010.7;;;11.3;78.8
45113;BME280;30873;53.908;27.576;2023-01-01T08:39:30;1010.7;;;11.3;78.9
45113;BME280;30873;53.908;27.576;2023-01-01T08:45:10;1010.7;;;11.2;78.8
45113;BME280;30873;53.908;27.576;2023-01-01T08:49:38;1010.9;;;11.3;78.9
45113;BME280;30873;53.908;27.576;2023-01-01T08:54:30;1011;;;11.2;78.9
45113;BME280;30873;53.908;27.576;2023-01-01T09:00:02;1011.1;;;11.2;79
45113;BME280;30873;53.908;27.576;2023-01-01T09:05:02;1011;;;11.3;78.8
45113;BME280;30873;53.908;27.576;2023-01-01T09:09:56;1011;;;11.3;78.4
45113;BME280;30873;53.908;27.576;2023-01-01T09:15:00;1011;;;11.4;78.1
45113;BME280;30873;53.908;27.576;2023-01-01T09:19:48;1010.9;;;11.4;78
45113;BME280;30873;53.908;27.576;2023-01-01T09:24:46;1010.9;;;11.5;77.7
45113;BME280;30873;53.908;27.576;2023-01-01T09:29:38;1010.9;;;11.6;77.3
45113;BME280;30873;53.908;27.576;2023-01-01T09:35:08;1010.9;;;11.9;76.6
45113;BME280;30873;53.908;27.576;2023-01-01T09:39:48;1010.7;;;13.4;73
45113;BME280;30873;53.908;27.576;2023-01-01T09:44:49;1010.6;;;14.6;68.3
45113;BME280;30873;53.908;27.576;2023-01-01T09:50:00;1010.6;;;15.1;64.8
45113;BME280;30873;53.908;27.576;2023-01-01T09:55:03;1010.7;;;15.6;63.1
45113;BME280;30873;53.908;27.576;2023-01-01T10:00:13;1010.8;;;16.2;61.7
45113;BME280;30873;53.908;27.576;2023-01-01T10:04:45;1010.9;;;16.4;60.5
45113;BME280;30873;53.908;27.576;2023-01-01T10:10:02;1010.9;;;16.6;59.4
45113;BME280;30873;53.908;27.576;2023-01-01T10:14:48;1011;;;16.8;58.5
45113;BME280;30873;53.908;27.576;2023-01-01T10:19:40;1011;;;16.3;59.2
45113;BME280;30873;53.908;27.576;2023-01-01T10:25:14;1011.1;;;15.5;61
45113;BME280;30873;53.908;27.576;2023-01-01T10:29:52;1011.1;;;15.5;61
45113;BME280;30873;53.908;27.576;2023-01-01T10:34:30;1011.1;;;15.3;62.4
45113;BME280;30873;53.908;27.576;2023-01-01T10:40:00;1011;;;15.5;61.5
45113;BME280;30873;53.908;27.576;2023-01-01T10:45:04;1011.1;;;15.1;62.2
45113;BME280;30873;53.908;27.576;2023-01-01T10:50:08;1011.1;;;14.5;64.2
45113;BME280;30873;53.908;27.576;2023-01-01T10:54:42;1011.1;;;14.3;64.9
45113;BME280;30873;53.908;27.576;2023-01-01T10:59:50;1011.1;;;14.4;65
45113;BME280;30873;53.908;27.576;2023-01-01T11:04:30;1011.1;;;14;65.9
45113;BME280;30873;53.908;27.576;2023-01-01T11:09:30;1011.2;;;13.7;67.2
45113;BME280;30873;53.908;27.576;2023-01-01T11:15:19;1011.2;;;13.5;67.8
45113;BME280;30873;53.908;27.576;2023-01-01T11:19:40;1011.3;;;13.6;68
45113;BME280;30873;53.908;27.576;2023-01-01T11:24:40;1011.3;;;14.5;66.6
45113;BME280;30873;53.908;27.576;2023-01-01T11:30:13;1011.4;;;15.4;63.8
45113;BME280;30873;53.908;27.576;2023-01-01T11:35:04;1011.3;;;16.2;61.1
45113;BME280;30873;53.908;27.576;2023-01-01T11:40:14;1011.2;;;17.4;58
45113;BME280;30873;53.908;27.576;2023-01-01T11:44:48;1011.3;;;17.8;56
45113;BME280;30873;53.908;27.576;2023-01-01T11:49:52;1011.3;;;17.9;56
45113;BME280;30873;53.908;27.576;2023-01-01T11:54:38;1011.3;;;18.6;54.1
45113;BME280;30873;53.908;27.576;2023-01-01T11:59:41;1011.3;;;19.4;52
45113;BME280;30873;53.908;27.576;2023-01-01T12:05:13;1011.3;;;19.9;50.5
45113;BME280;30873;53.908;27.576;2023-01-01T12:09:47;1011.3;;;20.1;49.5
45113;BME280;30873;53.908;27.576;2023-01-01T12:14:32;1011.3;;;19.7;49.6
45113;BME280;30873;53.908;27.576;2023-01-01T12:20:00;1011.3;;;18.7;51.8
45113;BME280;30873;53.908;27.576;2023-01-01T12:25:04;1011.3;;;17.8;53.4
45113;BME280;30873;53.908;27.576;2023-01-01T12:30:14;1011.3;;;15.4;59.8
45113;BME280;30873;53.908;27.576;2023-01-01T12:34:40;1011.3;;;15.4;59.8
45113;BME280;30873;53.908;27.576;2023-01-01T12:40:28;1011.3;;;14.7;62.4
45113;BME280;30873;53.908;27.576;2023-01-01T12:45:17;1011.4;;;14.4;63.4
45113;BME280;30873;53.908;27.576;2023-01-01T12:49:52;1011.4;;;14.4;63.4
45113;BME280;30873;53.908;27.576;2023-01-01T12:54:34;1011.4;;;14;64.5
45113;BME280;30873;53.908;27.576;2023-01-01T12:59:54;1011.4;;;13.7;65.5
45113;BME280;30873;53.908;27.576;2023-01-01T13:05:17;1011.5;;;13.4;66.8
45113;BME280;30873;53.908;27.576;2023-01-01T13:10:15;1011.5;;;13.4;66.8
45113;BME280;30873;53.908;27.576;2023-01-01T13:14:56;1011.6;;;13.4;67.1
45113;BME280;30873;53.908;27.576;2023-01-01T13:20:14;1011.7;;;13.3;67.4
45113;BME280;30873;53.908;27.576;2023-01-01T13:24:40;1011.9;;;13.3;67.8
45113;BME280;30873;53.908;27.576;2023-01-01T13:30:43;1011.9;;;13.3;67.8
45113;BME280;30873;53.908;27.576;2023-01-01T13:35:14;1011.9;;;13.3;67.9
45113;BME280;30873;53.908;27.576;2023-01-01T13:40:02;1011.9;;;13.3;67.9
45113;BME280;30873;53.908;27.576;2023-01-01T13:44:52;1011.9;;;13.2;68.1
45113;BME280;30873;53.908;27.576;2023-01-01T13:49:57;1011.9;;;13.2;68.2
45113;BME280;30873;53.908;27.576;2023-01-01T13:55:32;1012;;;13.2;68.2
45113;BME280;30873;53.908;27.576;2023-01-01T14:00:15;1012.2;;;13.1;68.4
45113;BME280;30873;53.908;27.576;2023-01-01T14:05:00;1012.2;;;13.1;68.4
45113;BME280;30873;53.908;27.576;2023-01-01T14:10:29;1012.2;;;13.1;68.4
45113;BME280;30873;53.908;27.576;2023-01-01T14:14:52;1012.3;;;13.1;68.5
45113;BME280;30873;53.908;27.576;2023-01-01T14:20:13;1012.3;;;13;68.6
45113;BME280;30873;53.908;27.576;2023-01-01T14:25:14;1012.3;;;13;68.8
45113;BME280;30873;53.908;27.576;2023-01-01T14:29:40;1012.3;;;13;68.8
45113;BME280;30873;53.908;27.576;2023-01-01T14:34:57;1012.3;;;13;68.6
45113;BME280;30873;53.908;27.576;2023-01-01T14:40:25;1012.3;;;13;68.7
45113;BME280;30873;53.908;27.576;2023-01-01T14:45:13;1012.4;;;12.8;69.3
45113;BME280;30873;53.908;27.576;2023-01-01T14:50:03;1012.4;;;12.8;69.3
45113;BME280;30873;53.908;27.576;2023-01-01T14:55:06;1012.5;;;12.8;69.3
45113;BME280;30873;53.908;27.576;2023-01-01T15:00:13;1012.5;;;12.8;69.3
45113;BME280;30873;53.908;27.576;2023-01-01T15:04:40;1012.5;;;12.7;69.4
45113;BME280;30873;53.908;27.576;2023-01-01T15:10:16;1012.4;;;12.5;70.1
45113;BME280;30873;53.908;27.576;2023-01-01T15:15:32;1012.3;;;12.4;70.4
45113;BME280;30873;53.908;27.576;2023-01-01T15:20:02;1012.3;;;12.4;70.4
45113;BME280;30873;53.908;27.576;2023-01-01T15:24:50;1012.2;;;12.4;70.6
45113;BME280;30873;53.908;27.576;2023-01-01T15:29:52;1012.2;;;12.3;70.8
45113;BME280;30873;53.908;27.576;2023-01-01T15:35:17;1012.4;;;12.2;71.2
45113;BME280;30873;53.908;27.576;2023-01-01T15:40:31;1012.5;;;12.2;71.4
45113;BME280;30873;53.908;27.576;2023-01-01T15:45:20;1012.5;;;12.2;71.4
45113;BME280;30873;53.908;27.576;2023-01-01T15:50:08;1012.6;;;12.1;71.6
45113;BME280;30873;53.908;27.576;2023-01-01T15:54:40;1012.6;;;12.1;71.7
45113;BME280;30873;53.908;27.576;2023-01-01T16:00:18;1012.5;;;12;71.8
45113;BME280;30873;53.908;27.576;2023-01-01T16:05:14;1012.4;;;12;72
45113;BME280;30873;53.908;27.576;2023-01-01T16:09:40;1012.4;;;12;72
45113;BME280;30873;53.908;27.576;2023-01-01T16:14:52;1012.3;;;12.1;71.7
45113;BME280;30873;53.908;27.576;2023-01-01T16:19:52;1012.3;;;12.1;71.6
45113;BME280;30873;53.908;27.576;2023-01-01T16:25:14;1012.7;;;12.1;71.6
45113;BME280;30873;53.908;27.576;2023-01-01T16:30:14;1012.7;;;12.1;71.5
45113;BME280;30873;53.908;27.576;2023-01-01T16:35:02;1012.7;;;12.1;71.5
45113;BME280;30873;53.908;27.576;2023-01-01T16:40:00;1012.7;;;12.1;71.3
45113;BME280;30873;53.908;27.576;2023-01-01T16:44:30;1012.5;;;12.1;71.3
45113;BME280;30873;53.908;27.576;2023-01-01T16:50:14;1012.6;;;12;71.4
45113;BME280;30873;53.908;27.576;2023-01-01T16:55:12;1012.6;;;12;71.4
45113;BME280;30873;53.908;27.576;2023-01-01T16:59:40;1012.6;;;12;71.4
45113;BME280;30873;53.908;27.576;2023-01-01T17:04:52;1012.6;;;12;71.4
45113;BME280;30873;53.908;27.576;2023-01-01T17:09:52;1012.7;;;12;71.3
45113;BME280;30873;53.908;27.576;2023-01-01T17:15:14;1012.8;;;11.9;71.7
45113;BME280;30873;53.908;27.576;2023-01-01T17:19:40;1012.8;;;11.9;71.7
45113;BME280;30873;53.908;27.576;2023-01-01T17:25:04;1012.8;;;11.9;71.7
45113;BME280;30873;53.908;27.576;2023-01-01T17:30:04;1012.7;;;12;71.4
45113;BME280;30873;53.908;27.576;2023-01-01T17:34:54;1012.7;;;12.1;71.2
45113;BME280;30873;53.908;27.576;2023-01-01T17:40:12;1012.6;;;12.2;70.7
45113;BME280;30873;53.908;27.576;2023-01-01T17:45:06;1012.6;;;12.2;70.7
45113;BME280;30873;53.908;27.576;2023-01-01T17:49:30;1012.5;;;12.2;70.4
45113;BME280;30873;53.908;27.576;2023-01-01T17:54:30;1012.6;;;12.1;70.5
45113;BME280;30873;53.908;27.576;2023-01-01T17:59:40;1012.7;;;12.1;70.6
45113;BME280;30873;53.908;27.576;2023-01-01T18:05:14;1013.2;;;12;70.7
45113;BME280;30873;53.908;27.576;2023-01-01T18:09:42;1013.2;;;12;70.7
45113;BME280;30873;53.908;27.576;2023-01-01T18:15:04;1013.3;;;12;70.8
45113;BME280;30873;53.908;27.576;2023-01-01T18:20:04;1013.4;;;12.1;70.4
45113;BME280;30873;53.908;27.576;2023-01-01T18:24:42;1013.4;;;12.2;69.9
45113;BME280;30873;53.908;27.576;2023-01-01T18:30:14;1013.6;;;12.3;69.3
45113;BME280;30873;53.908;27.576;2023-01-01T18:34:32;1013.6;;;12.3;69.3
45113;BME280;30873;53.908;27.576;2023-01-01T18:39:42;1013.6;;;12.3;69.1
45113;BME280;30873;53.908;27.576;2023-01-01T18:44:48;1013.5;;;12.4;68.9
45113;BME280;30873;53.908;27.576;2023-01-01T18:49:43;1013.5;;;12.4;68.5
45113;BME280;30873;53.908;27.576;2023-01-01T18:55:14;1013.5;;;12.4;68.4
45113;BME280;30873;53.908;27.576;2023-01-01T18:59:42;1013.5;;;12.4;68.4
45113;BME280;30873;53.908;27.576;2023-01-01T19:05:15;1013.5;;;12.3;68.5
45113;BME280;30873;53.908;27.576;2023-01-01T19:10:07;1013.5;;;12.2;68.6
45113;BME280;30873;53.908;27.576;2023-01-01T19:15:11;1013.5;;;12.1;68.8
45113;BME280;30873;53.908;27.576;2023-01-01T19:20:17;1013.7;;;12;69
45113;BME280;30873;53.908;27.576;2023-01-01T19:25:05;1013.7;;;12;69
45113;BME280;30873;53.908;27.576;2023-01-01T19:29:52;1013.8;;;12;69
45113;BME280;30873;53.908;27.576;2023-01-01T19:34:52;1013.9;;;11.9;69.1
45113;BME280;30873;53.908;27.576;2023-01-01T19:39:54;1014;;;12;69.1
45113;BME280;30873;53.908;27.576;2023-01-01T19:45:14;1014.1;;;11.9;69.1
45113;BME280;30873;53.908;27.576;2023-01-01T19:49:52;1014.1;;;11.9;69.1
45113;BME280;30873;53.908;27.576;2023-01-01T19:55:04;1014.2;;;11.9;69.2
45113;BME280;30873;53.908;27.576;2023-01-01T20:00:14;1014.4;;;11.9;69.2
45113;BME280;30873;53.908;27.576;2023-01-01T20:04:40;1014.4;;;11.9;69.2
45113;BME280;30873;53.908;27.576;2023-01-01T20:10:14;1014.4;;;11.9;69.2
45113;BME280;30873;53.908;27.576;2023-01-01T20:15:02;1014.4;;;11.9;69.2
45113;BME280;30873;53.908;27.576;2023-01-01T20:19:40;1014.5;;;12;68.8
45113;BME280;30873;53.908;27.576;2023-01-01T20:24:30;1014.7;;;12.1;68.6
45113;BME280;30873;53.908;27.576;2023-01-01T20:29:52;1014.8;;;12.2;68.2
45113;BME280;30873;53.908;27.576;2023-01-01T20:35:14;1014.9;;;12.4;67.6
45113;BME280;30873;53.908;27.576;2023-01-01T20:39:40;1014.9;;;12.4;67.6
45113;BME280;30873;53.908;27.576;2023-01-01T20:45:05;1014.9;;;12.6;67.3
45113;BME280;30873;53.908;27.576;2023-01-01T20:50:14;1015.1;;;12.9;66.7
45113;BME280;30873;53.908;27.576;2023-01-01T20:54:40;1015.1;;;12.9;66.7
45113;BME280;30873;53.908;27.576;2023-01-01T21:00:00;1015.2;;;12.9;66.5
45113;BME280;30873;53.908;27.576;2023-01-01T21:05:05;1015.4;;;13;66.2
45113;BME280;30873;53.908;27.576;2023-01-01T21:09:52;1015.4;;;13;66.3
45113;BME280;30873;53.908;27.576;2023-01-01T21:15:12;1015.6;;;12.9;66.4
45113;BME280;30873;53.908;27.576;2023-01-01T21:20:16;1015.6;;;13;66.3
45113;BME280;30873;53.908;27.576;2023-01-01T21:25:14;1015.8;;;12.9;66.6
45113;BME280;30873;53.908;27.576;2023-01-01T21:29:41;1015.8;;;12.9;66.6
45113;BME280;30873;53.908;27.576;2023-01-01T21:34:52;1015.9;;;12.8;66.7
45113;BME280;30873;53.908;27.576;2023-01-01T21:39:36;1016;;;12.8;67
45113;BME280;30873;53.908;27.576;2023-01-01T21:44:50;1015.9;;;12.7;67.1
45113;BME280;30873;53.908;27.576;2023-01-01T21:50:15;1016;;;12.7;67.2
45113;BME280;30873;53.908;27.576;2023-01-01T21:55:13;1016.1;;;12.7;67.2
45113;BME280;30873;53.908;27.576;2023-01-01T21:59:50;1016.1;;;12.7;67
45113;BME280;30873;53.908;27.576;2023-01-01T22:04:52;1016.1;;;12.7;67
45113;BME280;30873;53.908;27.576;2023-01-01T22:10:11;1016.1;;;12.6;67.3
45113;BME280;30873;53.908;27.576;2023-01-01T22:15:35;1016.2;;;12.3;68.2
45113;BME280;30873;53.908;27.576;2023-01-01T22:19:40;1016.2;;;12.3;68.2
45113;BME280;30873;53.908;27.576;2023-01-01T22:24:41;1016.3;;;12.2;68.5
45113;BME280;30873;53.908;27.576;2023-01-01T22:29:52;1016.4;;;12.1;68.6
45113;BME280;30873;53.908;27.576;2023-01-01T22:34:40;1016.4;;;12;68.5
45113;BME280;30873;53.908;27.576;2023-01-01T22:40:05;1016.5;;;12;68.3
45113;BME280;30873;53.908;27.576;2023-01-01T22:45:09;1016.5;;;12;68.3
45113;BME280;30873;53.908;27.576;2023-01-01T22:49:38;1016.5;;;12;68.1
45113;BME280;30873;53.908;27.576;2023-01-01T22:54:46;1016.4;;;12;68
45113;BME280;30873;53.908;27.576;2023-01-01T23:00:11;1016.5;;;12;67.4
45113;BME280;30873;53.908;27.576;2023-01-01T23:05:10;1016.6;;;12;67
45113;BME280;30873;53.908;27.576;2023-01-01T23:09:36;1016.7;;;12;66.7
45113;BME280;30873;53.908;27.576;2023-01-01T23:14:46;1016.8;;;11.9;66.3
45113;BME280;30873;53.908;27.576;2023-01-01T23:19:36;1016.7;;;11.9;65.9
45113;BME280;30873;53.908;27.576;2023-01-01T23:24:30;1016.8;;;11.9;65.8
45113;BME280;30873;53.908;27.576;2023-01-01T23:30:00;1016.8;;;11.8;65.3
45113;BME280;30873;53.908;27.576;2023-01-01T23:34:52;1016.7;;;11.8;64.9
45113;BME280;30873;53.908;27.576;2023-01-01T23:39:30;1016.9;;;11.8;64
45113;BME280;30873;53.908;27.576;2023-01-01T23:44:46;1017;;;11.8;63.6
45113;BME280;30873;53.908;27.576;2023-01-01T23:50:10;1017;;;11.8;63.3
45113;BME280;30873;53.908;27.576;2023-01-01T23:55:10;1017.2;;;11.7;63.6
45113;BME280;30873;53.908;27.576;2023-01-01T23:59:36;1017.2;;;11.6;63.8
